sensor_id;sensor_type;location;lat;lon;timestamp;pressure;altitude;pressure_sealevel;temperature;humidity
21706;BME280;11014;53.076;18.208;2023-10-09T00:00:34;102099.44;;;5.68;58.18
21706;BME280;11014;53.076;18.208;2023-10-09T00:03:27;102099.78;;;5.65;58.25
21706;BME280;11014;53.076;18.208;2023-10-09T00:05:56;102093.44;;;5.66;58.52
21706;BME280;11014;53.076;18.208;2023-10-09T00:08:25;102089.47;;;5.70;58.50
21706;BME280;11014;53.076;18.208;2023-10-09T00:11:01;102081.81;;;5.75;58.71
21706;BME280;11014;53.076;18.208;2023-10-09T00:13:45;102075.97;;;5.80;58.60
21706;BME280;11014;53.076;18.208;2023-10-09T00:16:21;102073.16;;;5.81;58.48
21706;BME280;11014;53.076;18.208;2023-10-09T00:19:06;102065.81;;;5.83;58.58
21706;BME280;11014;53.076;18.208;2023-10-09T00:21:58;102072.38;;;5.89;58.33
21706;BME280;11014;53.076;18.208;2023-10-09T00:24:33;102072.19;;;5.90;58.45
21706;BME280;11014;53.076;18.208;2023-10-09T00:27:01;102065.88;;;5.91;58.51
21706;BME280;11014;53.076;18.208;2023-10-09T00:29:40;102056.03;;;5.92;58.39
21706;BME280;11014;53.076;18.208;2023-10-09T00:32:13;102041.03;;;5.91;58.75
21706;BME280;11014;53.076;18.208;2023-10-09T00:34:47;102032.88;;;5.92;58.87
21706;BME280;11014;53.076;18.208;2023-10-09T00:37:19;102024.88;;;5.92;58.56
21706;BME280;11014;53.076;18.208;2023-10-09T00:40:03;102026.69;;;5.92;58.75
21706;BME280;11014;53.076;18.208;2023-10-09T00:42:41;102042.19;;;5.88;58.96
21706;BME280;11014;53.076;18.208;2023-10-09T00:45:10;102043.88;;;5.89;59.20
21706;BME280;11014;53.076;18.208;2023-10-09T00:47:44;102047.19;;;5.91;58.96
21706;BME280;11014;53.076;18.208;2023-10-09T00:50:16;102037.88;;;5.95;59.03
21706;BME280;11014;53.076;18.208;2023-10-09T00:52:51;102041.22;;;5.97;59.14
21706;BME280;11014;53.076;18.208;2023-10-09T00:55:23;102044.53;;;6.00;59.07
21706;BME280;11014;53.076;18.208;2023-10-09T00:58:14;102039.84;;;6.02;59.14
21706;BME280;11014;53.076;18.208;2023-10-09T01:00:43;102037.53;;;5.98;58.88
21706;BME280;11014;53.076;18.208;2023-10-09T01:03:16;102026.38;;;5.95;59.28
21706;BME280;11014;53.076;18.208;2023-10-09T01:05:56;102024.53;;;5.95;59.32
21706;BME280;11014;53.076;18.208;2023-10-09T01:08:40;102024.53;;;5.95;59.16
21706;BME280;11014;53.076;18.208;2023-10-09T01:11:16;102020.34;;;6.01;59.31
21706;BME280;11014;53.076;18.208;2023-10-09T01:13:50;102020.03;;;6.04;59.14
21706;BME280;11014;53.076;18.208;2023-10-09T01:16:20;102016.38;;;6.05;59.39
21706;BME280;11014;53.076;18.208;2023-10-09T01:18:55;102017.72;;;6.09;59.37
21706;BME280;11014;53.076;18.208;2023-10-09T01:21:26;102012.19;;;6.11;59.28
21706;BME280;11014;53.076;18.208;2023-10-09T01:23:55;102017.19;;;6.14;59.15
21706;BME280;11014;53.076;18.208;2023-10-09T01:26:38;102001.84;;;6.16;59.39
21706;BME280;11014;53.076;18.208;2023-10-09T01:29:08;102000.19;;;6.15;59.40
21706;BME280;11014;53.076;18.208;2023-10-09T01:31:49;101999.38;;;6.14;59.43
21706;BME280;11014;53.076;18.208;2023-10-09T01:34:29;102003.03;;;6.13;59.46
21706;BME280;11014;53.076;18.208;2023-10-09T01:37:21;102008.53;;;6.12;59.26
21706;BME280;11014;53.076;18.208;2023-10-09T01:39:58;102011.19;;;6.12;59.29
21706;BME280;11014;53.076;18.208;2023-10-09T01:42:47;102027.22;;;6.12;59.27
21706;BME280;11014;53.076;18.208;2023-10-09T01:45:16;102024.69;;;6.10;59.61
21706;BME280;11014;53.076;18.208;2023-10-09T01:47:47;102014.84;;;6.11;59.40
21706;BME280;11014;53.076;18.208;2023-10-09T01:50:26;102010.19;;;6.05;59.67
21706;BME280;11014;53.076;18.208;2023-10-09T01:53:03;102007.84;;;6.02;59.49
21706;BME280;11014;53.076;18.208;2023-10-09T01:55:34;102012.53;;;6.00;59.90
21706;BME280;11014;53.076;18.208;2023-10-09T01:58:14;102010.03;;;5.98;59.99
21706;BME280;11014;53.076;18.208;2023-10-09T02:00:51;102012.72;;;5.98;59.73
21706;BME280;11014;53.076;18.208;2023-10-09T02:03:24;102008.34;;;5.97;59.98
21706;BME280;11014;53.076;18.208;2023-10-09T02:05:55;102015.00;;;6.01;60.09
21706;BME280;11014;53.076;18.208;2023-10-09T02:08:34;102014.88;;;6.03;59.95
21706;BME280;11014;53.076;18.208;2023-10-09T02:11:05;102006.53;;;6.06;59.88
21706;BME280;11014;53.076;18.208;2023-10-09T02:13:35;101996.84;;;6.05;60.16
21706;BME280;11014;53.076;18.208;2023-10-09T02:16:04;101995.69;;;6.07;60.40
21706;BME280;11014;53.076;18.208;2023-10-09T02:18:43;102004.53;;;6.08;60.03
21706;BME280;11014;53.076;18.208;2023-10-09T02:21:22;101995.88;;;5.97;60.42
21706;BME280;11014;53.076;18.208;2023-10-09T02:24:17;101995.22;;;5.95;60.93
21706;BME280;11014;53.076;18.208;2023-10-09T02:27:05;101981.69;;;6.13;60.50
21706;BME280;11014;53.076;18.208;2023-10-09T02:29:37;101984.84;;;6.09;60.44
21706;BME280;11014;53.076;18.208;2023-10-09T02:32:06;101979.03;;;5.89;61.07
21706;BME280;11014;53.076;18.208;2023-10-09T02:34:54;101978.81;;;5.82;61.30
21706;BME280;11014;53.076;18.208;2023-10-09T02:37:22;101962.03;;;5.90;61.58
21706;BME280;11014;53.076;18.208;2023-10-09T02:39:54;101967.19;;;6.08;61.09
21706;BME280;11014;53.076;18.208;2023-10-09T02:42:23;101959.84;;;5.93;61.46
21706;BME280;11014;53.076;18.208;2023-10-09T02:44:52;101953.19;;;5.97;61.56
21706;BME280;11014;53.076;18.208;2023-10-09T02:47:21;101950.19;;;5.92;61.72
21706;BME280;11014;53.076;18.208;2023-10-09T02:49:53;101944.88;;;5.92;61.87
21706;BME280;11014;53.076;18.208;2023-10-09T02:52:28;101931.53;;;6.01;61.83
21706;BME280;11014;53.076;18.208;2023-10-09T02:55:02;101923.84;;;5.97;62.04
21706;BME280;11014;53.076;18.208;2023-10-09T02:57:40;101928.16;;;5.98;62.22
21706;BME280;11014;53.076;18.208;2023-10-09T03:00:11;101914.16;;;6.05;62.19
21706;BME280;11014;53.076;18.208;2023-10-09T03:02:47;101917.84;;;6.04;62.20
21706;BME280;11014;53.076;18.208;2023-10-09T03:05:19;101918.50;;;5.97;62.41
21706;BME280;11014;53.076;18.208;2023-10-09T03:07:49;101906.16;;;5.96;62.57
21706;BME280;11014;53.076;18.208;2023-10-09T03:10:23;101910.34;;;5.99;62.57
21706;BME280;11014;53.076;18.208;2023-10-09T03:12:53;101905.84;;;6.00;62.82
21706;BME280;11014;53.076;18.208;2023-10-09T03:15:22;101914.50;;;6.02;62.85
21706;BME280;11014;53.076;18.208;2023-10-09T03:17:52;101921.50;;;6.03;62.74
21706;BME280;11014;53.076;18.208;2023-10-09T03:20:21;101905.50;;;6.03;62.90
21706;BME280;11014;53.076;18.208;2023-10-09T03:22:49;101905.84;;;6.00;62.97
21706;BME280;11014;53.076;18.208;2023-10-09T03:25:18;101902.19;;;6.01;63.27
21706;BME280;11014;53.076;18.208;2023-10-09T03:27:47;101887.47;;;6.05;63.32
21706;BME280;11014;53.076;18.208;2023-10-09T03:30:17;101883.81;;;6.06;63.30
21706;BME280;11014;53.076;18.208;2023-10-09T03:32:53;101878.16;;;6.09;63.24
21706;BME280;11014;53.076;18.208;2023-10-09T03:35:23;101878.16;;;6.09;63.50
21706;BME280;11014;53.076;18.208;2023-10-09T03:38:02;101867.47;;;6.09;63.45
21706;BME280;11014;53.076;18.208;2023-10-09T03:40:44;101867.28;;;6.10;63.57
21706;BME280;11014;53.076;18.208;2023-10-09T03:43:12;101854.06;;;6.33;63.49
21706;BME280;11014;53.076;18.208;2023-10-09T03:45:42;101853.28;;;6.16;63.46
21706;BME280;11014;53.076;18.208;2023-10-09T03:48:22;101850.44;;;6.18;63.40
21706;BME280;11014;53.076;18.208;2023-10-09T03:50:54;101847.31;;;6.45;63.50
21706;BME280;11014;53.076;18.208;2023-10-09T03:53:39;101849.91;;;6.30;63.33
21706;BME280;11014;53.076;18.208;2023-10-09T03:56:08;101838.72;;;6.27;63.44
21706;BME280;11014;53.076;18.208;2023-10-09T03:58:40;101833.28;;;6.51;63.46
21706;BME280;11014;53.076;18.208;2023-10-09T04:01:13;101843.03;;;6.36;63.42
21706;BME280;11014;53.076;18.208;2023-10-09T04:03:53;101835.19;;;6.34;63.33
21706;BME280;11014;53.076;18.208;2023-10-09T04:06:30;101843.38;;;6.33;63.91
21706;BME280;11014;53.076;18.208;2023-10-09T04:09:03;101842.22;;;6.35;63.74
21706;BME280;11014;53.076;18.208;2023-10-09T04:11:51;101825.84;;;6.38;63.85
21706;BME280;11014;53.076;18.208;2023-10-09T04:14:41;101824.66;;;6.41;64.04
21706;BME280;11014;53.076;18.208;2023-10-09T04:17:18;101813.66;;;6.44;63.82
21706;BME280;11014;53.076;18.208;2023-10-09T04:19:52;101809.59;;;6.48;63.84
21706;BME280;11014;53.076;18.208;2023-10-09T04:22:41;101807.63;;;6.50;64.19
21706;BME280;11014;53.076;18.208;2023-10-09T04:25:19;101806.44;;;6.52;63.94
21706;BME280;11014;53.076;18.208;2023-10-09T04:27:57;101794.56;;;6.55;64.01
21706;BME280;11014;53.076;18.208;2023-10-09T04:30:46;101812.56;;;6.53;64.06
21706;BME280;11014;53.076;18.208;2023-10-09T04:33:15;101809.91;;;6.53;64.34
21706;BME280;11014;53.076;18.208;2023-10-09T04:36:04;101806.53;;;6.59;64.40
21706;BME280;11014;53.076;18.208;2023-10-09T04:38:54;101803.22;;;6.57;64.36
21706;BME280;11014;53.076;18.208;2023-10-09T04:41:32;101798.72;;;6.57;64.55
21706;BME280;11014;53.076;18.208;2023-10-09T04:44:20;101802.53;;;6.63;64.35
21706;BME280;11014;53.076;18.208;2023-10-09T04:47:01;101795.16;;;6.65;64.15
21706;BME280;11014;53.076;18.208;2023-10-09T04:49:46;101789.00;;;6.65;64.13
21706;BME280;11014;53.076;18.208;2023-10-09T04:52:19;101783.66;;;6.65;64.56
21706;BME280;11014;53.076;18.208;2023-10-09T04:55:02;101785.31;;;6.66;64.35
21706;BME280;11014;53.076;18.208;2023-10-09T04:57:44;101783.94;;;6.70;64.40
21706;BME280;11014;53.076;18.208;2023-10-09T05:00:17;101780.78;;;6.74;64.57
21706;BME280;11014;53.076;18.208;2023-10-09T05:02:56;101776.91;;;6.99;64.10
21706;BME280;11014;53.076;18.208;2023-10-09T05:05:28;101773.34;;;6.84;63.92
21706;BME280;11014;53.076;18.208;2023-10-09T05:08:18;101765.97;;;6.86;64.26
21706;BME280;11014;53.076;18.208;2023-10-09T05:10:58;101770.13;;;6.89;64.58
21706;BME280;11014;53.076;18.208;2023-10-09T05:13:28;101764.50;;;6.84;64.81
21706;BME280;11014;53.076;18.208;2023-10-09T05:16:18;101761.25;;;6.96;64.59
21706;BME280;11014;53.076;18.208;2023-10-09T05:18:51;101765.03;;;7.02;64.61
21706;BME280;11014;53.076;18.208;2023-10-09T05:21:35;101759.78;;;7.08;64.63
21706;BME280;11014;53.076;18.208;2023-10-09T05:24:05;101769.19;;;7.04;64.71
21706;BME280;11014;53.076;18.208;2023-10-09T05:26:44;101772.50;;;7.06;64.82
21706;BME280;11014;53.076;18.208;2023-10-09T05:29:26;101768.75;;;7.15;64.96
21706;BME280;11014;53.076;18.208;2023-10-09T05:32:05;101771.59;;;7.14;64.71
21706;BME280;11014;53.076;18.208;2023-10-09T05:34:44;101762.03;;;7.20;64.79
21706;BME280;11014;53.076;18.208;2023-10-09T05:37:30;101764.72;;;7.20;64.84
21706;BME280;11014;53.076;18.208;2023-10-09T05:40:05;101763.34;;;7.24;65.06
21706;BME280;11014;53.076;18.208;2023-10-09T05:42:46;101766.31;;;7.29;64.88
21706;BME280;11014;53.076;18.208;2023-10-09T05:45:51;101764.31;;;7.45;65.01
21706;BME280;11014;53.076;18.208;2023-10-09T05:48:36;101769.53;;;7.39;64.64
21706;BME280;11014;53.076;18.208;2023-10-09T05:51:09;101762.34;;;7.39;65.17
21706;BME280;11014;53.076;18.208;2023-10-09T05:53:41;101765.66;;;7.41;65.06
21706;BME280;11014;53.076;18.208;2023-10-09T05:56:12;101764.47;;;7.44;65.24
21706;BME280;11014;53.076;18.208;2023-10-09T05:59:00;101761.72;;;7.52;65.13
21706;BME280;11014;53.076;18.208;2023-10-09T06:01:46;101756.47;;;7.58;65.20
21706;BME280;11014;53.076;18.208;2023-10-09T06:04:24;101760.28;;;7.64;65.38
21706;BME280;11014;53.076;18.208;2023-10-09T06:07:11;101752.16;;;7.72;65.12
21706;BME280;11014;53.076;18.208;2023-10-09T06:09:42;101759.25;;;7.80;65.47
21706;BME280;11014;53.076;18.208;2023-10-09T06:12:25;101751.31;;;7.86;65.43
21706;BME280;11014;53.076;18.208;2023-10-09T06:15:00;101746.25;;;7.91;65.63
21706;BME280;11014;53.076;18.208;2023-10-09T06:17:48;101747.16;;;7.98;65.61
21706;BME280;11014;53.076;18.208;2023-10-09T06:20:20;101748.44;;;8.02;65.76
21706;BME280;11014;53.076;18.208;2023-10-09T06:23:07;101754.72;;;8.09;65.65
21706;BME280;11014;53.076;18.208;2023-10-09T06:25:44;101761.00;;;8.16;65.53
21706;BME280;11014;53.076;18.208;2023-10-09T06:28:31;101756.53;;;8.23;65.56
21706;BME280;11014;53.076;18.208;2023-10-09T06:31:28;101763.75;;;8.38;65.35
21706;BME280;11014;53.076;18.208;2023-10-09T06:34:17;101761.81;;;8.31;64.95
21706;BME280;11014;53.076;18.208;2023-10-09T06:36:46;101755.06;;;8.36;64.96
21706;BME280;11014;53.076;18.208;2023-10-09T06:39:21;101759.03;;;8.40;64.92
21706;BME280;11014;53.076;18.208;2023-10-09T06:42:08;101752.88;;;8.60;64.50
21706;BME280;11014;53.076;18.208;2023-10-09T06:44:44;101744.13;;;8.94;62.80
21706;BME280;11014;53.076;18.208;2023-10-09T06:47:22;101744.34;;;8.71;63.16
21706;BME280;11014;53.076;18.208;2023-10-09T06:49:54;101740.84;;;8.71;63.26
21706;BME280;11014;53.076;18.208;2023-10-09T06:53:01;101731.19;;;8.76;63.38
21706;BME280;11014;53.076;18.208;2023-10-09T06:55:54;101729.84;;;8.87;63.24
21706;BME280;11014;53.076;18.208;2023-10-09T06:58:34;101734.44;;;8.93;62.67
21706;BME280;11014;53.076;18.208;2023-10-09T07:01:16;101733.88;;;8.98;62.48
21706;BME280;11014;53.076;18.208;2023-10-09T07:03:57;101745.22;;;9.00;62.51
21706;BME280;11014;53.076;18.208;2023-10-09T07:06:39;101750.81;;;9.05;62.25
21706;BME280;11014;53.076;18.208;2023-10-09T07:09:07;101744.25;;;9.07;61.81
21706;BME280;11014;53.076;18.208;2023-10-09T07:11:40;101745.91;;;9.08;61.76
21706;BME280;11014;53.076;18.208;2023-10-09T07:14:17;101753.72;;;9.03;62.03
21706;BME280;11014;53.076;18.208;2023-10-09T07:17:03;101750.00;;;9.04;62.05
21706;BME280;11014;53.076;18.208;2023-10-09T07:19:45;101757.00;;;9.05;61.90
21706;BME280;11014;53.076;18.208;2023-10-09T07:22:13;101772.13;;;9.13;62.33
21706;BME280;11014;53.076;18.208;2023-10-09T07:25:05;101756.06;;;9.40;61.64
21706;BME280;11014;53.076;18.208;2023-10-09T07:27:44;101764.84;;;9.28;61.80
21706;BME280;11014;53.076;18.208;2023-10-09T07:30:16;101747.75;;;9.29;61.73
21706;BME280;11014;53.076;18.208;2023-10-09T07:33:13;101751.88;;;9.31;61.90
21706;BME280;11014;53.076;18.208;2023-10-09T07:35:47;101749.06;;;9.39;61.76
21706;BME280;11014;53.076;18.208;2023-10-09T07:38:20;101752.00;;;9.51;61.44
21706;BME280;11014;53.076;18.208;2023-10-09T07:40:53;101757.22;;;9.59;61.23
21706;BME280;11014;53.076;18.208;2023-10-09T07:43:29;101766.34;;;9.65;60.91
21706;BME280;11014;53.076;18.208;2023-10-09T07:46:18;101766.59;;;9.70;60.94
21706;BME280;11014;53.076;18.208;2023-10-09T07:49:16;101771.16;;;9.76;60.86
21706;BME280;11014;53.076;18.208;2023-10-09T07:51:53;101769.34;;;9.83;61.14
21706;BME280;11014;53.076;18.208;2023-10-09T07:54:21;101771.66;;;9.92;61.02
21706;BME280;11014;53.076;18.208;2023-10-09T07:57:20;101770.94;;;10.05;61.05
21706;BME280;11014;53.076;18.208;2023-10-09T07:59:53;101777.53;;;10.09;61.16
21706;BME280;11014;53.076;18.208;2023-10-09T08:03:00;101769.56;;;10.22;60.62
21706;BME280;11014;53.076;18.208;2023-10-09T08:05:30;101769.41;;;10.30;60.48
21706;BME280;11014;53.076;18.208;2023-10-09T08:08:02;101757.25;;;10.34;60.36
21706;BME280;11014;53.076;18.208;2023-10-09T08:11:09;101765.94;;;10.43;60.38
21706;BME280;11014;53.076;18.208;2023-10-09T08:13:56;101765.34;;;10.47;60.18
21706;BME280;11014;53.076;18.208;2023-10-09T08:16:25;101779.38;;;10.49;59.62
21706;BME280;11014;53.076;18.208;2023-10-09T08:19:05;101774.88;;;10.56;59.59
21706;BME280;11014;53.076;18.208;2023-10-09T08:21:54;101773.69;;;10.65;59.05
21706;BME280;11014;53.076;18.208;2023-10-09T08:24:41;101760.44;;;10.70;58.88
21706;BME280;11014;53.076;18.208;2023-10-09T08:27:10;101759.81;;;10.75;58.54
21706;BME280;11014;53.076;18.208;2023-10-09T08:30:02;101746.81;;;10.85;58.33
21706;BME280;11014;53.076;18.208;2023-10-09T08:32:47;101730.69;;;10.92;58.47
21706;BME280;11014;53.076;18.208;2023-10-09T08:35:43;101722.44;;;11.00;57.98
21706;BME280;11014;53.076;18.208;2023-10-09T08:38:17;101724.09;;;11.07;57.97
21706;BME280;11014;53.076;18.208;2023-10-09T08:40:53;101736.09;;;11.31;57.54
21706;BME280;11014;53.076;18.208;2023-10-09T08:43:29;101730.91;;;11.23;57.78
21706;BME280;11014;53.076;18.208;2023-10-09T08:46:04;101717.88;;;11.33;57.73
21706;BME280;11014;53.076;18.208;2023-10-09T08:48:33;101716.22;;;11.39;57.48
21706;BME280;11014;53.076;18.208;2023-10-09T08:51:05;101719.94;;;11.44;57.57
21706;BME280;11014;53.076;18.208;2023-10-09T08:53:34;101713.28;;;11.53;57.18
21706;BME280;11014;53.076;18.208;2023-10-09T08:56:04;101713.03;;;11.61;57.13
21706;BME280;11014;53.076;18.208;2023-10-09T08:58:32;101710.34;;;11.68;56.56
21706;BME280;11014;53.076;18.208;2023-10-09T09:01:05;101715.06;;;11.92;55.77
21706;BME280;11014;53.076;18.208;2023-10-09T09:03:41;101706.59;;;12.33;54.57
21706;BME280;11014;53.076;18.208;2023-10-09T09:06:12;101696.78;;;12.45;54.68
21706;BME280;11014;53.076;18.208;2023-10-09T09:08:43;101700.06;;;12.54;53.77
21706;BME280;11014;53.076;18.208;2023-10-09T09:11:16;101695.41;;;12.67;53.55
21706;BME280;11014;53.076;18.208;2023-10-09T09:14:05;101694.19;;;12.63;53.40
21706;BME280;11014;53.076;18.208;2023-10-09T09:16:35;101699.75;;;12.37;54.47
21706;BME280;11014;53.076;18.208;2023-10-09T09:19:06;101702.53;;;12.55;54.70
21706;BME280;11014;53.076;18.208;2023-10-09T09:21:47;101699.72;;;12.99;52.82
21706;BME280;11014;53.076;18.208;2023-10-09T09:24:17;101694.09;;;13.07;52.40
21706;BME280;11014;53.076;18.208;2023-10-09T09:27:03;101694.31;;;12.99;52.78
21706;BME280;11014;53.076;18.208;2023-10-09T09:29:41;101691.22;;;12.71;53.28
21706;BME280;11014;53.076;18.208;2023-10-09T09:32:11;101695.25;;;12.87;53.67
21706;BME280;11014;53.076;18.208;2023-10-09T09:34:51;101676.88;;;13.27;51.67
21706;BME280;11014;53.076;18.208;2023-10-09T09:37:25;101683.97;;;13.46;51.37
21706;BME280;11014;53.076;18.208;2023-10-09T09:40:02;101677.59;;;13.58;50.84
21706;BME280;11014;53.076;18.208;2023-10-09T09:42:44;101677.13;;;13.61;50.25
21706;BME280;11014;53.076;18.208;2023-10-09T09:45:18;101681.25;;;13.64;50.55
21706;BME280;11014;53.076;18.208;2023-10-09T09:47:52;101681.09;;;13.77;50.79
21706;BME280;11014;53.076;18.208;2023-10-09T09:50:23;101674.75;;;14.19;49.64
21706;BME280;11014;53.076;18.208;2023-10-09T09:52:59;101680.22;;;14.01;50.33
21706;BME280;11014;53.076;18.208;2023-10-09T09:55:42;101677.19;;;13.91;51.07
21706;BME280;11014;53.076;18.208;2023-10-09T09:58:20;101681.75;;;13.91;51.87
21706;BME280;11014;53.076;18.208;2023-10-09T10:00:52;101683.44;;;14.21;50.24
21706;BME280;11014;53.076;18.208;2023-10-09T10:05:52;101681.09;;;14.43;49.72
21706;BME280;11014;53.076;18.208;2023-10-09T10:08:25;101679.72;;;14.52;49.17
21706;BME280;11014;53.076;18.208;2023-10-09T10:11:03;101688.09;;;14.62;49.67
21706;BME280;11014;53.076;18.208;2023-10-09T10:16:13;101675.94;;;14.83;48.95
21706;BME280;11014;53.076;18.208;2023-10-09T10:19:12;101673.56;;;14.98;48.49
21706;BME280;11014;53.076;18.208;2023-10-09T10:21:47;101675.94;;;15.18;48.95
21706;BME280;11014;53.076;18.208;2023-10-09T10:35:21;101657.44;;;15.73;46.97
21706;BME280;11014;53.076;18.208;2023-10-09T10:38:23;101654.31;;;15.92;45.64
21706;BME280;11014;53.076;18.208;2023-10-09T10:40:51;101651.78;;;15.74;46.57
21706;BME280;11014;53.076;18.208;2023-10-09T10:43:27;101650.47;;;15.77;46.18
21706;BME280;11014;53.076;18.208;2023-10-09T10:46:15;101654.94;;;15.83;46.21
21706;BME280;11014;53.076;18.208;2023-10-09T10:49:03;101645.94;;;15.94;46.25
21706;BME280;11014;53.076;18.208;2023-10-09T10:51:53;101651.06;;;16.07;46.54
21706;BME280;11014;53.076;18.208;2023-10-09T10:54:40;101636.25;;;16.26;46.23
21706;BME280;11014;53.076;18.208;2023-10-09T10:57:17;101624.88;;;16.41;46.29
21706;BME280;11014;53.076;18.208;2023-10-09T10:59:48;101629.94;;;16.37;46.50
21706;BME280;11014;53.076;18.208;2023-10-09T11:02:18;101632.59;;;16.32;45.68
21706;BME280;11014;53.076;18.208;2023-10-09T11:04:56;101636.28;;;16.71;45.14
21706;BME280;11014;53.076;18.208;2023-10-09T11:07:43;101637.25;;;16.98;44.75
21706;BME280;11014;53.076;18.208;2023-10-09T11:10:12;101630.22;;;17.19;44.28
21706;BME280;11014;53.076;18.208;2023-10-09T11:12:55;101622.88;;;17.36;44.13
21706;BME280;11014;53.076;18.208;2023-10-09T11:15:44;101616.22;;;17.27;44.39
21706;BME280;11014;53.076;18.208;2023-10-09T11:18:15;101615.59;;;17.58;43.82
21706;BME280;11014;53.076;18.208;2023-10-09T11:20:55;101623.00;;;17.46;43.79
21706;BME280;11014;53.076;18.208;2023-10-09T11:23:44;101617.34;;;17.69;43.12
21706;BME280;11014;53.076;18.208;2023-10-09T11:26:19;101605.56;;;18.07;42.73
21706;BME280;11014;53.076;18.208;2023-10-09T11:29:11;101609.03;;;18.29;42.12
21706;BME280;11014;53.076;18.208;2023-10-09T11:34:29;101606.78;;;18.48;41.04
21706;BME280;11014;53.076;18.208;2023-10-09T11:39:31;101606.16;;;18.41;41.58
21706;BME280;11014;53.076;18.208;2023-10-09T11:42:05;101610.41;;;18.32;41.52
21706;BME280;11014;53.076;18.208;2023-10-09T11:44:43;101609.34;;;18.33;41.45
21706;BME280;11014;53.076;18.208;2023-10-09T11:47:34;101624.50;;;18.24;41.73
21706;BME280;11014;53.076;18.208;2023-10-09T11:50:03;101610.47;;;18.10;41.29
21706;BME280;11014;53.076;18.208;2023-10-09T11:52:59;101610.53;;;18.15;41.39
21706;BME280;11014;53.076;18.208;2023-10-09T11:55:48;101611.81;;;18.08;40.88
21706;BME280;11014;53.076;18.208;2023-10-09T11:58:19;101602.41;;;17.94;40.70
21706;BME280;11014;53.076;18.208;2023-10-09T12:00:52;101600.88;;;18.03;41.24
21706;BME280;11014;53.076;18.208;2023-10-09T12:03:27;101599.38;;;18.17;41.74
21706;BME280;11014;53.076;18.208;2023-10-09T12:06:01;101600.75;;;18.46;41.12
21706;BME280;11014;53.076;18.208;2023-10-09T12:08:34;101595.28;;;19.10;39.23
21706;BME280;11014;53.076;18.208;2023-10-09T12:11:04;101595.06;;;19.73;38.19
21706;BME280;11014;53.076;18.208;2023-10-09T12:13:38;101593.84;;;20.36;38.07
21706;BME280;11014;53.076;18.208;2023-10-09T12:16:08;101588.69;;;20.70;36.83
21706;BME280;11014;53.076;18.208;2023-10-09T12:18:43;101585.94;;;20.75;37.31
21706;BME280;11014;53.076;18.208;2023-10-09T12:21:21;101579.25;;;21.37;36.53
21706;BME280;11014;53.076;18.208;2023-10-09T12:23:51;101574.59;;;22.74;33.46
21706;BME280;11014;53.076;18.208;2023-10-09T12:26:22;101570.44;;;22.81;32.87
21706;BME280;11014;53.076;18.208;2023-10-09T12:28:50;101565.88;;;21.94;32.53
21706;BME280;11014;53.076;18.208;2023-10-09T12:31:19;101564.81;;;21.26;33.53
21706;BME280;11014;53.076;18.208;2023-10-09T12:33:52;101558.56;;;21.25;34.03
21706;BME280;11014;53.076;18.208;2023-10-09T12:36:21;101543.22;;;21.30;33.72
21706;BME280;11014;53.076;18.208;2023-10-09T12:38:49;101538.69;;;21.64;33.29
21706;BME280;11014;53.076;18.208;2023-10-09T12:41:24;101532.97;;;22.72;32.18
21706;BME280;11014;53.076;18.208;2023-10-09T12:43:59;101531.19;;;23.76;30.87
21706;BME280;11014;53.076;18.208;2023-10-09T12:46:28;101531.19;;;24.77;29.68
21706;BME280;11014;53.076;18.208;2023-10-09T12:49:01;101520.41;;;25.49;27.91
21706;BME280;11014;53.076;18.208;2023-10-09T12:51:29;101515.28;;;25.70;28.13
21706;BME280;11014;53.076;18.208;2023-10-09T12:53:58;101509.75;;;26.06;27.34
21706;BME280;11014;53.076;18.208;2023-10-09T12:56:30;101510.53;;;26.42;26.73
21706;BME280;11014;53.076;18.208;2023-10-09T12:59:03;101501.13;;;26.43;26.95
21706;BME280;11014;53.076;18.208;2023-10-09T13:01:36;101507.09;;;26.36;26.72
21706;BME280;11014;53.076;18.208;2023-10-09T13:04:13;101496.44;;;26.43;26.26
21706;BME280;11014;53.076;18.208;2023-10-09T13:06:45;101504.50;;;26.18;26.39
21706;BME280;11014;53.076;18.208;2023-10-09T13:09:15;101495.34;;;26.22;26.61
21706;BME280;11014;53.076;18.208;2023-10-09T13:11:53;101491.47;;;26.10;25.97
21706;BME280;11014;53.076;18.208;2023-10-09T13:14:22;101496.47;;;25.85;26.54
21706;BME280;11014;53.076;18.208;2023-10-09T13:16:51;101492.72;;;25.32;26.72
21706;BME280;11014;53.076;18.208;2023-10-09T13:19:24;101491.44;;;24.56;27.89
21706;BME280;11014;53.076;18.208;2023-10-09T13:21:55;101494.31;;;24.65;28.36
21706;BME280;11014;53.076;18.208;2023-10-09T13:24:24;101488.06;;;25.05;27.74
21706;BME280;11014;53.076;18.208;2023-10-09T13:27:02;101488.00;;;25.60;27.32
21706;BME280;11014;53.076;18.208;2023-10-09T13:29:32;101493.56;;;25.82;26.96
21706;BME280;11014;53.076;18.208;2023-10-09T13:32:02;101486.41;;;26.03;26.90
21706;BME280;11014;53.076;18.208;2023-10-09T13:34:41;101481.91;;;25.49;27.09
21706;BME280;11014;53.076;18.208;2023-10-09T13:37:14;101489.38;;;25.21;28.08
21706;BME280;11014;53.076;18.208;2023-10-09T13:39:51;101478.25;;;25.54;27.17
21706;BME280;11014;53.076;18.208;2023-10-09T13:42:26;101492.13;;;25.84;26.95
21706;BME280;11014;53.076;18.208;2023-10-09T13:45:04;101486.47;;;25.89;26.92
21706;BME280;11014;53.076;18.208;2023-10-09T13:47:44;101494.63;;;25.95;26.81
21706;BME280;11014;53.076;18.208;2023-10-09T13:50:15;101488.38;;;25.67;26.50
21706;BME280;11014;53.076;18.208;2023-10-09T13:52:44;101479.19;;;25.71;27.05
21706;BME280;11014;53.076;18.208;2023-10-09T13:55:13;101489.03;;;26.08;26.54
21706;BME280;11014;53.076;18.208;2023-10-09T13:57:44;101480.53;;;25.60;26.94